createdAt,value
2022-09-12T00:01:50.579Z,52.04
2022-09-12T00:05:11.528Z,52.28
2022-09-12T00:08:32.536Z,52.52
2022-09-12T00:11:56.554Z,52.73
2022-09-12T00:15:18.523Z,53.00
2022-09-12T00:18:39.568Z,53.25
2022-09-12T00:22:00.520Z,53.48
2022-09-12T00:25:21.561Z,53.60
2022-09-12T00:28:42.529Z,53.77
2022-09-12T00:32:03.539Z,53.82
2022-09-12T00:35:24.539Z,54.08
2022-09-12T00:38:48.551Z,54.39
2022-09-12T00:42:09.537Z,54.42
2022-09-12T00:45:41.586Z,54.59
2022-09-12T00:49:10.531Z,54.76
2022-09-12T00:53:17.550Z,54.91
2022-09-12T00:56:41.537Z,55.01
2022-09-12T01:00:29.539Z,55.18
2022-09-12T01:03:50.562Z,55.31
2022-09-12T01:07:12.543Z,55.37
2022-09-12T01:10:34.551Z,55.46
2022-09-12T01:13:56.550Z,55.53
2022-09-12T01:17:17.597Z,55.69
2022-09-12T01:20:59.557Z,55.76
2022-09-12T01:24:43.559Z,55.93
2022-09-12T01:28:33.551Z,55.92
2022-09-12T01:31:54.592Z,56.05
2022-09-12T01:35:29.538Z,56.28
2022-09-12T01:39:02.551Z,56.52
2022-09-12T01:42:55.549Z,56.47
2022-09-12T01:46:30.550Z,56.54
2022-09-12T01:50:09.564Z,56.67
2022-09-12T01:53:37.552Z,56.79
2022-09-12T01:57:02.554Z,56.78
2022-09-12T02:00:26.542Z,57.05
2022-09-12T02:03:54.571Z,56.86
2022-09-12T02:07:24.556Z,56.96
2022-09-12T02:10:50.599Z,56.92
2022-09-12T02:14:17.550Z,56.92
2022-09-12T02:17:39.789Z,57.16
2022-09-12T02:21:03.558Z,57.25
2022-09-12T02:24:28.601Z,57.47
2022-09-12T02:27:58.558Z,57.46
2022-09-12T02:31:43.563Z,57.30
2022-09-12T02:35:13.597Z,57.35
2022-09-12T02:39:00.621Z,57.58
2022-09-12T02:42:22.586Z,57.39
2022-09-12T02:45:43.601Z,57.56
2022-09-12T02:49:04.589Z,57.69
2022-09-12T02:52:25.570Z,57.97
2022-09-12T02:55:48.574Z,57.85
2022-09-12T02:59:13.579Z,58.06
2022-09-12T03:02:46.585Z,58.36
2022-09-12T03:06:21.568Z,58.54
2022-09-12T03:09:51.618Z,58.83
2022-09-12T03:13:37.562Z,59.03
2022-09-12T03:17:31.571Z,58.94
2022-09-12T03:21:06.598Z,59.06
2022-09-12T03:25:05.572Z,59.03
2022-09-12T03:28:29.602Z,58.95
2022-09-12T03:31:50.571Z,59.22
2022-09-12T03:35:11.580Z,59.24
2022-09-12T03:38:33.574Z,59.28
2022-09-12T03:41:54.593Z,59.43
2022-09-12T03:45:15.585Z,59.43
2022-09-12T03:48:38.651Z,59.33
2022-09-12T03:51:59.617Z,59.34
2022-09-12T03:55:20.599Z,59.27
2022-09-12T03:58:44.616Z,59.32
2022-09-12T04:02:05.631Z,59.26
2022-09-12T04:05:26.574Z,59.24
2022-09-12T04:08:48.589Z,58.95
2022-09-12T04:12:09.587Z,59.24
2022-09-12T04:15:31.596Z,59.33
2022-09-12T04:18:52.585Z,59.26
2022-09-12T04:22:13.614Z,59.19
2022-09-12T04:25:34.603Z,59.21
2022-09-12T04:28:55.583Z,59.31
2022-09-12T04:32:16.598Z,59.32
2022-09-12T04:35:37.623Z,59.41
2022-09-12T04:39:00.615Z,59.49
2022-09-12T04:42:21.612Z,59.53
2022-09-12T04:45:42.650Z,59.67
2022-09-12T04:49:03.590Z,59.86
2022-09-12T04:52:17.618Z,59.88
2022-09-12T04:55:38.613Z,59.90
2022-09-12T04:59:00.613Z,60.06
2022-09-12T05:02:21.643Z,60.22
2022-09-12T05:05:42.624Z,60.11
2022-09-12T05:09:05.610Z,60.18
2022-09-12T05:12:26.625Z,60.18
2022-09-12T05:15:47.608Z,60.09
2022-09-12T05:19:09.659Z,59.98
2022-09-12T05:22:30.614Z,59.92
2022-09-12T05:25:51.625Z,59.72
2022-09-12T05:29:13.607Z,59.34
2022-09-12T05:32:34.621Z,59.11
2022-09-12T05:35:55.621Z,59.03
2022-09-12T05:39:17.614Z,58.70
2022-09-12T05:42:38.614Z,58.37
2022-09-12T05:45:59.659Z,58.39
2022-09-12T05:49:23.615Z,58.63
2022-09-12T05:52:39.617Z,58.77
2022-09-12T05:56:00.620Z,58.42
2022-09-12T05:59:34.621Z,58.08
2022-09-12T06:02:55.620Z,57.83
2022-09-12T06:06:20.638Z,57.60
2022-09-12T06:09:41.614Z,57.21
2022-09-12T06:13:02.634Z,57.18
2022-09-12T06:16:24.663Z,56.77
2022-09-12T06:19:45.628Z,56.93
2022-09-12T06:23:09.647Z,56.55
2022-09-12T06:26:32.625Z,56.20
2022-09-12T06:29:46.641Z,55.83
2022-09-12T06:33:07.652Z,55.54
2022-09-12T06:36:37.651Z,55.40
2022-09-12T06:39:51.655Z,55.40
2022-09-12T06:43:12.640Z,55.20
2022-09-12T06:46:33.631Z,55.00
2022-09-12T06:49:54.662Z,54.96
2022-09-12T06:53:15.630Z,55.18
2022-09-12T06:56:39.645Z,55.05
2022-09-12T07:00:00.631Z,55.01
2022-09-12T07:03:21.694Z,54.60
2022-09-12T07:06:51.632Z,54.07
2022-09-12T07:10:13.633Z,53.54
2022-09-12T07:13:34.638Z,53.02
2022-09-12T07:16:55.706Z,52.92
2022-09-12T07:20:16.637Z,52.69
2022-09-12T07:23:37.648Z,52.00
2022-09-12T07:26:58.649Z,51.28
2022-09-12T07:30:20.652Z,51.03
2022-09-12T07:33:41.741Z,51.16
2022-09-12T07:37:02.642Z,51.67
2022-09-12T07:40:23.655Z,51.29
2022-09-12T07:43:44.703Z,51.20
2022-09-12T07:47:05.642Z,51.26
2022-09-12T07:50:26.655Z,50.96
2022-09-12T07:53:50.641Z,50.92
2022-09-12T07:57:11.672Z,51.23
2022-09-12T08:00:33.638Z,51.86
2022-09-12T08:04:00.656Z,51.54
2022-09-12T08:07:22.707Z,51.05
2022-09-12T08:10:43.654Z,51.01
2022-09-12T08:14:04.672Z,50.71
2022-09-12T08:17:25.650Z,50.83
2022-09-12T08:20:46.667Z,51.10
2022-09-12T08:24:10.681Z,50.93
2022-09-12T08:27:31.661Z,51.33
2022-09-12T08:30:52.748Z,51.23
2022-09-12T08:34:13.671Z,51.36
2022-09-12T08:37:34.699Z,51.05
2022-09-12T08:41:06.672Z,50.97
2022-09-12T08:44:33.663Z,50.72
2022-09-12T08:47:58.670Z,50.58
2022-09-12T08:51:23.655Z,50.00
2022-09-12T08:54:45.677Z,49.44
2022-09-12T08:58:00.675Z,48.77
2022-09-12T09:01:50.725Z,48.09
2022-09-12T09:05:28.654Z,47.75
2022-09-12T09:08:49.685Z,48.39
2022-09-12T09:12:46.688Z,47.73
2022-09-12T09:16:25.681Z,47.53
2022-09-12T09:19:54.764Z,47.11
2022-09-12T09:23:29.682Z,46.78
2022-09-12T09:27:36.900Z,47.02
2022-09-12T09:30:56.696Z,46.48
2022-09-12T09:34:26.685Z,46.46
2022-09-12T09:37:58.703Z,46.09
2022-09-12T09:41:49.689Z,45.47
2022-09-12T09:45:16.706Z,45.76
2022-09-12T09:48:46.790Z,45.59
2022-09-12T09:52:10.736Z,45.06
2022-09-12T09:55:37.685Z,44.69
2022-09-12T09:58:58.712Z,44.75
2022-09-12T10:02:38.715Z,44.33
2022-09-12T10:06:03.710Z,43.93
2022-09-12T10:09:44.687Z,43.79
2022-09-12T10:13:20.697Z,43.55
2022-09-12T10:16:46.684Z,43.00
2022-09-12T10:20:20.998Z,42.69
2022-09-12T10:23:44.771Z,42.43
2022-09-12T10:27:27.687Z,42.85
2022-09-12T10:30:49.727Z,43.36
2022-09-12T10:34:12.702Z,43.24
2022-09-12T10:37:52.226Z,42.92
2022-09-12T10:41:16.709Z,42.81
2022-09-12T10:44:45.721Z,42.53
2022-09-12T10:48:08.708Z,42.38
2022-09-12T10:51:40.720Z,42.12
2022-09-12T10:55:01.706Z,41.74
2022-09-12T10:58:51.743Z,41.92
2022-09-12T11:02:42.814Z,41.35
2022-09-12T11:06:08.712Z,41.14
2022-09-12T11:09:45.726Z,40.70
2022-09-12T11:13:59.730Z,41.13
2022-09-12T11:18:00.741Z,41.31
2022-09-12T11:21:52.732Z,41.44
2022-09-12T11:25:13.729Z,40.94
2022-09-12T11:28:59.761Z,41.14
2022-09-12T11:32:38.763Z,40.90
2022-09-12T11:36:04.731Z,40.61
2022-09-12T11:39:30.724Z,40.37
2022-09-12T11:42:54.732Z,40.21
2022-09-12T11:46:31.738Z,40.17
2022-09-12T11:50:12.807Z,39.86
2022-09-12T11:53:47.857Z,40.06
2022-09-12T11:57:50.743Z,40.08
2022-09-12T12:01:25.708Z,40.94
2022-09-12T12:05:09.742Z,40.95
2022-09-12T12:08:30.764Z,41.23
2022-09-12T12:11:58.745Z,40.83
2022-09-12T12:15:20.740Z,40.76
2022-09-12T12:18:43.725Z,40.64
2022-09-12T12:22:05.761Z,40.88
2022-09-12T12:25:29.873Z,40.56
2022-09-12T12:28:57.770Z,40.27
2022-09-12T12:32:19.735Z,39.78
2022-09-12T12:35:49.764Z,39.69
2022-09-12T12:39:11.756Z,38.76
2022-09-12T12:42:47.795Z,36.71
2022-09-12T12:46:16.799Z,35.71
2022-09-12T12:49:41.794Z,36.43
2022-09-12T12:53:13.745Z,36.97
2022-09-12T12:56:58.752Z,37.86
2022-09-12T13:00:40.004Z,38.23
2022-09-12T13:04:10.790Z,38.50
2022-09-12T13:07:54.812Z,38.42
2022-09-12T13:11:27.740Z,39.00
2022-09-12T13:15:07.758Z,38.98
2022-09-12T13:18:35.806Z,38.77
2022-09-12T13:22:28.766Z,38.55
2022-09-12T13:25:50.756Z,37.91
2022-09-12T13:29:34.778Z,35.47
2022-09-12T13:32:56.768Z,32.38
2022-09-12T13:36:48.768Z,30.05
2022-09-12T13:40:30.788Z,30.12
2022-09-12T13:43:56.746Z,31.07
2022-09-12T13:47:17.789Z,31.40
2022-09-12T13:50:41.785Z,31.08
2022-09-12T13:54:03.770Z,32.28
2022-09-12T13:57:47.790Z,33.66
2022-09-12T14:01:24.842Z,34.73
2022-09-12T14:05:03.828Z,34.80
2022-09-12T14:08:27.791Z,33.84
2022-09-12T14:11:51.781Z,32.17
2022-09-12T14:15:16.147Z,30.60
2022-09-12T14:18:45.881Z,28.79
2022-09-12T14:22:08.812Z,27.68
2022-09-12T14:25:38.805Z,27.67
2022-09-12T14:29:01.132Z,26.81
2022-09-12T14:32:34.825Z,27.47
2022-09-12T14:36:19.802Z,29.32
2022-09-12T14:39:55.865Z,32.04
2022-09-12T14:43:17.852Z,34.26
2022-09-12T14:46:46.204Z,35.80
2022-09-12T14:50:11.133Z,36.79
2022-09-12T14:53:31.801Z,37.81
2022-09-12T14:57:09.886Z,38.45
2022-09-12T15:00:32.807Z,39.08
2022-09-12T15:03:59.967Z,39.63
2022-09-12T15:07:55.939Z,40.03
2022-09-12T15:11:19.805Z,40.42
2022-09-12T15:14:40.794Z,40.92
2022-09-12T15:18:06.228Z,41.13
2022-09-12T15:21:31.811Z,41.16
2022-09-12T15:24:52.811Z,40.08
2022-09-12T15:28:13.773Z,39.05
2022-09-12T15:31:36.894Z,38.68
2022-09-12T15:34:59.994Z,39.62
2022-09-12T15:38:25.643Z,40.83
2022-09-12T15:41:48.805Z,41.77
2022-09-12T15:45:11.829Z,42.40
2022-09-12T15:48:33.805Z,42.80
2022-09-12T15:51:54.860Z,42.95
2022-09-12T15:55:16.976Z,43.39
2022-09-12T15:58:49.795Z,43.46
2022-09-12T16:02:11.030Z,43.80
2022-09-12T16:05:35.921Z,44.11
2022-09-12T16:08:56.825Z,44.10
2022-09-12T16:12:17.804Z,44.52
2022-09-12T16:15:39.069Z,44.66
2022-09-12T16:19:00.058Z,44.83
2022-09-12T16:22:20.830Z,44.92
2022-09-12T16:25:41.999Z,45.21
2022-09-12T16:29:08.957Z,45.55
2022-09-12T16:32:29.962Z,45.67
2022-09-12T16:35:50.861Z,45.84
2022-09-12T16:39:13.097Z,46.23
2022-09-12T16:42:33.876Z,46.45
2022-09-12T16:45:54.864Z,46.74
2022-09-12T16:49:15.830Z,46.82
2022-09-12T16:52:36.841Z,46.98
2022-09-12T16:56:03.134Z,47.15
2022-09-12T16:59:23.832Z,47.24
2022-09-12T17:02:45.052Z,47.42
2022-09-12T17:06:27.910Z,47.36
2022-09-12T17:09:49.888Z,47.26
2022-09-12T17:13:11.015Z,47.06
2022-09-12T17:16:32.884Z,46.93
2022-09-12T17:19:54.252Z,46.74
2022-09-12T17:23:14.833Z,46.61
2022-09-12T17:26:35.837Z,46.62
2022-09-12T17:29:57.114Z,46.57
2022-09-12T17:33:17.849Z,46.68
2022-09-12T17:36:38.859Z,46.90
2022-09-12T17:40:02.914Z,46.98
2022-09-12T17:43:24.129Z,46.92
2022-09-12T17:46:50.864Z,46.73
2022-09-12T17:50:30.912Z,46.59
2022-09-12T17:53:51.851Z,46.59
2022-09-12T17:57:12.832Z,46.55
2022-09-12T18:00:54.143Z,46.50
2022-09-12T18:04:14.955Z,46.53
2022-09-12T18:07:35.951Z,46.39
2022-09-12T18:10:56.917Z,46.52
2022-09-12T18:14:19.427Z,46.41
2022-09-12T18:17:49.986Z,46.41
2022-09-12T18:21:10.859Z,46.57
2022-09-12T18:24:31.970Z,46.53
2022-09-12T18:27:52.875Z,46.23
2022-09-12T18:31:14.058Z,46.35
2022-09-12T18:34:34.855Z,46.35
2022-09-12T18:37:56.873Z,46.40
2022-09-12T18:41:24.089Z,46.60
2022-09-12T18:44:44.927Z,46.51
2022-09-12T18:48:05.921Z,46.43
2022-09-12T18:51:30.042Z,46.67
2022-09-12T18:54:50.940Z,46.78
2022-09-12T18:58:12.935Z,46.83
2022-09-12T19:01:36.973Z,47.10
2022-09-12T19:04:57.893Z,47.15
2022-09-12T19:08:18.871Z,46.94
2022-09-12T19:11:42.173Z,47.03
2022-09-12T19:15:02.926Z,46.97
2022-09-12T19:18:23.911Z,47.15
2022-09-12T19:21:45.878Z,47.06
2022-09-12T19:25:06.964Z,47.12
2022-09-12T19:28:27.880Z,47.26
2022-09-12T19:31:48.906Z,47.41
2022-09-12T19:35:09.855Z,47.36
2022-09-12T19:38:31.891Z,47.51
2022-09-12T19:41:53.875Z,47.55
2022-09-12T19:45:14.901Z,47.63
2022-09-12T19:48:35.900Z,47.88
2022-09-12T19:51:56.908Z,47.83
2022-09-12T19:55:17.898Z,47.97
2022-09-12T19:58:38.889Z,48.00
2022-09-12T20:01:59.979Z,48.05
2022-09-12T20:05:20.883Z,47.89
2022-09-12T20:08:41.923Z,47.98
2022-09-12T20:12:02.919Z,48.03
2022-09-12T20:15:24.878Z,48.18
2022-09-12T20:18:45.955Z,48.35
2022-09-12T20:22:07.951Z,48.46
2022-09-12T20:25:28.912Z,48.54
2022-09-12T20:28:50.908Z,48.47
2022-09-12T20:32:12.091Z,48.55
2022-09-12T20:35:33.985Z,48.51
2022-09-12T20:38:55.883Z,48.63
2022-09-12T20:42:16.879Z,48.53
2022-09-12T20:45:37.902Z,48.46
2022-09-12T20:48:59.948Z,48.57
2022-09-12T20:52:20.902Z,48.43
2022-09-12T20:55:41.916Z,48.77
2022-09-12T20:59:02.912Z,48.53
2022-09-12T21:02:27.958Z,48.73
2022-09-12T21:05:48.899Z,48.67
2022-09-12T21:09:09.899Z,48.86
2022-09-12T21:12:30.879Z,48.80
2022-09-12T21:15:52.968Z,48.89
2022-09-12T21:19:13.892Z,48.88
2022-09-12T21:22:34.993Z,49.00
2022-09-12T21:25:55.893Z,49.03
2022-09-12T21:29:16.959Z,49.05
2022-09-12T21:32:40.904Z,49.09
2022-09-12T21:36:02.902Z,49.04
2022-09-12T21:39:23.907Z,48.94
2022-09-12T21:42:44.899Z,49.25
2022-09-12T21:46:10.923Z,48.83
2022-09-12T21:49:24.909Z,49.13
2022-09-12T21:52:45.900Z,49.18
2022-09-12T21:56:06.906Z,49.38
2022-09-12T21:59:28.900Z,49.26
2022-09-12T22:02:49.923Z,49.66
2022-09-12T22:06:17.771Z,49.33
2022-09-12T22:09:41.908Z,49.75
2022-09-12T22:13:02.895Z,49.85
2022-09-12T22:16:23.950Z,49.99
2022-09-12T22:19:45.910Z,50.22
2022-09-12T22:23:25.910Z,50.14
2022-09-12T22:26:56.919Z,50.26
2022-09-12T22:30:18.907Z,50.60
2022-09-12T22:33:39.959Z,50.53
2022-09-12T22:37:01.914Z,50.74
2022-09-12T22:40:23.996Z,50.73
2022-09-12T22:43:45.911Z,50.87
2022-09-12T22:47:06.940Z,50.88
2022-09-12T22:50:27.971Z,51.11
2022-09-12T22:53:49.931Z,51.18
2022-09-12T22:57:10.924Z,51.49
2022-09-12T23:00:33.979Z,51.57
2022-09-12T23:03:54.915Z,51.61
2022-09-12T23:07:16.951Z,51.58
2022-09-12T23:10:37.908Z,51.86
2022-09-12T23:14:00.927Z,51.87
2022-09-12T23:17:21.910Z,51.59
2022-09-12T23:20:42.933Z,51.94
2022-09-12T23:23:57.917Z,52.06
2022-09-12T23:27:18.926Z,51.67
2022-09-12T23:30:39.919Z,52.13
2022-09-12T23:34:00.957Z,52.10
2022-09-12T23:37:21.954Z,52.31
2022-09-12T23:40:42.945Z,52.55
2022-09-12T23:44:03.981Z,52.20
2022-09-12T23:47:24.981Z,52.72
2022-09-12T23:50:45.930Z,52.51
2022-09-12T23:54:06.940Z,52.62
2022-09-12T23:57:27.935Z,52.87
